Pedden Acres, Vermont
Current Conditions -  °F | °C
As of 11:54 AM on Saturday 20 Dec 2014 (Local Time) from KVSF Reporting Station
Clear Clear  
Wind Chill: 27°   Ceiling: Unl
Heat Index: 27°   Visibility: 10mi
Dew Point: 15°   Wind: 0mph
Humidity: 61%   Direction: NA
Pressure: 30.27"   Gusts: NA
Location:  43.3096°N, 72.4675°W
Report Text: KVSF 201654Z AUTO 00000KT 10SM CLR M03/M09 A3027 RMK AO2 SLP260 T10281094 TSNO
Loading
Personal Weather Stations






























Interactive Weather Map New forecast layout! Learn more

10-Day Weather Forecast

Advertisements
Track Severe Weather on mobile